Terminal Aerodrome Forecast
Issued by NWS

Home | Current Version | Previous Version | Text Only | Print | Product List | Glossary On
Versions: 1 2 3 4 5 6 7 8 9 10 11 12 13 14 15 16
000
FTUS45 KSLC 201142
TAFEVW
TAF
KEVW 201142Z 2012/2112 01006KT 1SM -SN BR BKN010 OVC020
     FM210400 36007KT 5SM -SHSN SCT015 BKN035=

USA.gov is the U.S. government's official web portal to all federal, state and local government web resources and services.